sensor_id;sensor_type;location;lat;lon;timestamp;temperature;humidity
37086;DHT22;23001;45.952;12.676;2023-05-02T00:01:06;14.10;99.90
37086;DHT22;23001;45.952;12.676;2023-05-02T00:04:02;14.10;99.90
37086;DHT22;23001;45.952;12.676;2023-05-02T00:06:33;14.10;99.90
37086;DHT22;23001;45.952;12.676;2023-05-02T00:09:13;14.20;99.90
37086;DHT22;23001;45.952;12.676;2023-05-02T00:11:39;14.20;99.90
37086;DHT22;23001;45.952;12.676;2023-05-02T00:14:05;14.20;99.90
37086;DHT22;23001;45.952;12.676;2023-05-02T00:19:26;14.30;99.90
37086;DHT22;23001;45.952;12.676;2023-05-02T00:22:14;14.40;99.90
37086;DHT22;23001;45.952;12.676;2023-05-02T00:24:58;14.40;99.90
37086;DHT22;23001;45.952;12.676;2023-05-02T00:27:25;14.30;99.90
37086;DHT22;23001;45.952;12.676;2023-05-02T00:30:01;14.30;99.90
37086;DHT22;23001;45.952;12.676;2023-05-02T00:32:38;14.30;99.90
37086;DHT22;23001;45.952;12.676;2023-05-02T00:35:15;14.30;99.90
37086;DHT22;23001;45.952;12.676;2023-05-02T00:37:41;14.30;99.90
37086;DHT22;23001;45.952;12.676;2023-05-02T00:40:18;14.30;99.90
37086;DHT22;23001;45.952;12.676;2023-05-02T00:42:44;14.30;99.90
37086;DHT22;23001;45.952;12.676;2023-05-02T00:45:37;14.30;99.90
37086;DHT22;23001;45.952;12.676;2023-05-02T00:48:13;14.20;99.90
37086;DHT22;23001;45.952;12.676;2023-05-02T00:50:41;14.20;99.90
37086;DHT22;23001;45.952;12.676;2023-05-02T00:59:23;14.10;99.90
37086;DHT22;23001;45.952;12.676;2023-05-02T01:15:56;14.20;99.90
37086;DHT22;23001;45.952;12.676;2023-05-02T01:18:53;14.10;99.90
37086;DHT22;23001;45.952;12.676;2023-05-02T01:21:20;14.10;99.90
37086;DHT22;23001;45.952;12.676;2023-05-02T01:32:15;14.10;99.90
37086;DHT22;23001;45.952;12.676;2023-05-02T01:34:44;14.10;99.90
37086;DHT22;23001;45.952;12.676;2023-05-02T01:37:17;14.10;99.90
37086;DHT22;23001;45.952;12.676;2023-05-02T01:39:45;14.10;99.90
37086;DHT22;23001;45.952;12.676;2023-05-02T01:42:30;14.10;99.90
37086;DHT22;23001;45.952;12.676;2023-05-02T01:44:57;14.10;99.90
37086;DHT22;23001;45.952;12.676;2023-05-02T01:47:26;14.10;99.90
37086;DHT22;23001;45.952;12.676;2023-05-02T01:52:46;14.20;99.90
37086;DHT22;23001;45.952;12.676;2023-05-02T01:55:16;14.20;99.90
37086;DHT22;23001;45.952;12.676;2023-05-02T01:57:50;14.10;99.90
37086;DHT22;23001;45.952;12.676;2023-05-02T02:06:16;14.20;99.90
37086;DHT22;23001;45.952;12.676;2023-05-02T02:08:53;14.10;99.90
37086;DHT22;23001;45.952;12.676;2023-05-02T02:11:20;14.10;99.90
37086;DHT22;23001;45.952;12.676;2023-05-02T02:14:32;14.20;99.90
37086;DHT22;23001;45.952;12.676;2023-05-02T02:17:13;14.20;99.90
37086;DHT22;23001;45.952;12.676;2023-05-02T02:22:58;14.30;99.90
37086;DHT22;23001;45.952;12.676;2023-05-02T02:26:04;14.30;99.90
37086;DHT22;23001;45.952;12.676;2023-05-02T02:28:47;14.30;99.90
37086;DHT22;23001;45.952;12.676;2023-05-02T02:31:34;14.20;99.90
37086;DHT22;23001;45.952;12.676;2023-05-02T02:40:25;14.30;99.90
37086;DHT22;23001;45.952;12.676;2023-05-02T03:01:03;14.10;99.90
37086;DHT22;23001;45.952;12.676;2023-05-02T03:13:34;13.90;99.90
37086;DHT22;23001;45.952;12.676;2023-05-02T03:19:50;13.90;99.90
37086;DHT22;23001;45.952;12.676;2023-05-02T03:23:00;13.90;99.90
37086;DHT22;23001;45.952;12.676;2023-05-02T03:25:48;13.90;99.90
37086;DHT22;23001;45.952;12.676;2023-05-02T03:28:51;14.00;99.90
37086;DHT22;23001;45.952;12.676;2023-05-02T03:37:25;14.00;99.90
37086;DHT22;23001;45.952;12.676;2023-05-02T03:40:06;14.00;99.90
37086;DHT22;23001;45.952;12.676;2023-05-02T03:42:48;13.90;99.90
37086;DHT22;23001;45.952;12.676;2023-05-02T03:45:27;14.00;99.90
37086;DHT22;23001;45.952;12.676;2023-05-02T03:48:16;13.90;99.90
37086;DHT22;23001;45.952;12.676;2023-05-02T03:50:59;13.90;99.90
37086;DHT22;23001;45.952;12.676;2023-05-02T03:53:28;13.90;99.90
37086;DHT22;23001;45.952;12.676;2023-05-02T03:55:59;13.90;99.90
37086;DHT22;23001;45.952;12.676;2023-05-02T03:58:40;13.90;99.90
37086;DHT22;23001;45.952;12.676;2023-05-02T04:01:17;13.90;99.90
37086;DHT22;23001;45.952;12.676;2023-05-02T04:03:59;13.90;99.90
37086;DHT22;23001;45.952;12.676;2023-05-02T04:06:47;14.00;99.90
37086;DHT22;23001;45.952;12.676;2023-05-02T04:09:47;14.00;99.90
37086;DHT22;23001;45.952;12.676;2023-05-02T04:32:08;13.90;99.90
37086;DHT22;23001;45.952;12.676;2023-05-02T04:34:56;14.00;99.90
37086;DHT22;23001;45.952;12.676;2023-05-02T04:40:36;13.90;99.90
37086;DHT22;23001;45.952;12.676;2023-05-02T04:43:28;13.90;99.90
37086;DHT22;23001;45.952;12.676;2023-05-02T04:46:05;13.70;99.90
37086;DHT22;23001;45.952;12.676;2023-05-02T04:51:40;13.90;99.90
37086;DHT22;23001;45.952;12.676;2023-05-02T04:54:09;13.90;99.90
37086;DHT22;23001;45.952;12.676;2023-05-02T04:56:49;13.90;99.90
37086;DHT22;23001;45.952;12.676;2023-05-02T04:59:18;13.90;99.90
37086;DHT22;23001;45.952;12.676;2023-05-02T05:02:25;13.90;99.90
37086;DHT22;23001;45.952;12.676;2023-05-02T05:11:18;14.00;99.90
37086;DHT22;23001;45.952;12.676;2023-05-02T05:14:07;14.00;99.90
37086;DHT22;23001;45.952;12.676;2023-05-02T05:16:46;14.00;99.90
37086;DHT22;23001;45.952;12.676;2023-05-02T05:19:17;14.00;99.90
37086;DHT22;23001;45.952;12.676;2023-05-02T05:21:52;14.00;99.90
37086;DHT22;23001;45.952;12.676;2023-05-02T05:27:57;13.90;99.90
37086;DHT22;23001;45.952;12.676;2023-05-02T05:42:42;14.00;99.90
37086;DHT22;23001;45.952;12.676;2023-05-02T05:45:17;14.00;99.90
37086;DHT22;23001;45.952;12.676;2023-05-02T05:51:06;14.10;99.90
37086;DHT22;23001;45.952;12.676;2023-05-02T05:53:32;14.10;99.90
37086;DHT22;23001;45.952;12.676;2023-05-02T05:56:15;14.10;99.90
37086;DHT22;23001;45.952;12.676;2023-05-02T05:58:43;14.10;99.90
37086;DHT22;23001;45.952;12.676;2023-05-02T06:04:37;14.20;99.90
37086;DHT22;23001;45.952;12.676;2023-05-02T06:07:03;14.20;99.90
37086;DHT22;23001;45.952;12.676;2023-05-02T06:09:29;14.10;99.90
37086;DHT22;23001;45.952;12.676;2023-05-02T06:11:55;14.10;99.90
37086;DHT22;23001;45.952;12.676;2023-05-02T06:14:20;14.10;99.90
37086;DHT22;23001;45.952;12.676;2023-05-02T06:16:49;14.20;99.90
37086;DHT22;23001;45.952;12.676;2023-05-02T06:19:15;14.20;99.90
37086;DHT22;23001;45.952;12.676;2023-05-02T06:24:51;14.30;99.90
37086;DHT22;23001;45.952;12.676;2023-05-02T06:27:21;14.30;99.90
37086;DHT22;23001;45.952;12.676;2023-05-02T06:29:49;14.30;99.90
37086;DHT22;23001;45.952;12.676;2023-05-02T06:35:09;14.40;99.90
37086;DHT22;23001;45.952;12.676;2023-05-02T06:37:35;14.30;99.90
37086;DHT22;23001;45.952;12.676;2023-05-02T06:40:01;14.40;99.90
37086;DHT22;23001;45.952;12.676;2023-05-02T06:42:30;14.40;99.90
37086;DHT22;23001;45.952;12.676;2023-05-02T06:44:56;14.40;99.90
37086;DHT22;23001;45.952;12.676;2023-05-02T06:47:23;14.50;99.90
37086;DHT22;23001;45.952;12.676;2023-05-02T06:49:50;14.50;99.90
37086;DHT22;23001;45.952;12.676;2023-05-02T06:52:16;14.50;99.90
37086;DHT22;23001;45.952;12.676;2023-05-02T06:54:41;14.40;99.90
37086;DHT22;23001;45.952;12.676;2023-05-02T06:57:07;14.40;99.90
37086;DHT22;23001;45.952;12.676;2023-05-02T06:59:33;14.30;99.90
37086;DHT22;23001;45.952;12.676;2023-05-02T07:01:58;14.40;99.90
37086;DHT22;23001;45.952;12.676;2023-05-02T07:04:24;14.40;99.90
37086;DHT22;23001;45.952;12.676;2023-05-02T07:06:49;14.40;99.90
37086;DHT22;23001;45.952;12.676;2023-05-02T07:09:15;14.50;99.90
37086;DHT22;23001;45.952;12.676;2023-05-02T07:11:48;14.60;99.90
37086;DHT22;23001;45.952;12.676;2023-05-02T07:14:17;14.60;99.90
37086;DHT22;23001;45.952;12.676;2023-05-02T07:16:51;14.60;99.90
37086;DHT22;23001;45.952;12.676;2023-05-02T07:19:23;14.70;99.90
37086;DHT22;23001;45.952;12.676;2023-05-02T07:25:31;14.60;99.90
37086;DHT22;23001;45.952;12.676;2023-05-02T07:28:02;14.60;99.90
37086;DHT22;23001;45.952;12.676;2023-05-02T07:30:48;14.70;99.90
37086;DHT22;23001;45.952;12.676;2023-05-02T07:33:17;14.70;99.90
37086;DHT22;23001;45.952;12.676;2023-05-02T07:35:48;14.80;99.90
37086;DHT22;23001;45.952;12.676;2023-05-02T07:38:14;14.80;99.90
37086;DHT22;23001;45.952;12.676;2023-05-02T07:40:40;14.90;99.90
37086;DHT22;23001;45.952;12.676;2023-05-02T07:43:08;14.90;99.90
37086;DHT22;23001;45.952;12.676;2023-05-02T07:48:24;14.90;99.90
37086;DHT22;23001;45.952;12.676;2023-05-02T07:53:49;15.00;99.90
37086;DHT22;23001;45.952;12.676;2023-05-02T07:56:17;15.00;99.90
37086;DHT22;23001;45.952;12.676;2023-05-02T07:58:55;15.00;99.90
37086;DHT22;23001;45.952;12.676;2023-05-02T08:04:21;15.00;99.90
37086;DHT22;23001;45.952;12.676;2023-05-02T08:06:52;15.10;99.90
37086;DHT22;23001;45.952;12.676;2023-05-02T08:09:19;15.10;99.90
37086;DHT22;23001;45.952;12.676;2023-05-02T08:21:24;15.30;99.90
37086;DHT22;23001;45.952;12.676;2023-05-02T08:23:36;15.30;99.90
37086;DHT22;23001;45.952;12.676;2023-05-02T08:26:10;15.30;99.90
37086;DHT22;23001;45.952;12.676;2023-05-02T08:28:51;15.30;99.90
37086;DHT22;23001;45.952;12.676;2023-05-02T08:31:17;15.40;99.90
37086;DHT22;23001;45.952;12.676;2023-05-02T08:33:42;15.40;99.90
37086;DHT22;23001;45.952;12.676;2023-05-02T08:38:52;15.20;99.90
37086;DHT22;23001;45.952;12.676;2023-05-02T08:41:23;15.30;99.90
37086;DHT22;23001;45.952;12.676;2023-05-02T08:43:52;15.30;99.90
37086;DHT22;23001;45.952;12.676;2023-05-02T08:52:38;15.30;99.90
37086;DHT22;23001;45.952;12.676;2023-05-02T08:55:11;15.40;99.90
37086;DHT22;23001;45.952;12.676;2023-05-02T08:57:56;15.50;99.90
37086;DHT22;23001;45.952;12.676;2023-05-02T09:00:25;15.50;99.90
37086;DHT22;23001;45.952;12.676;2023-05-02T09:05:41;15.60;99.90
37086;DHT22;23001;45.952;12.676;2023-05-02T09:08:20;15.70;99.90
37086;DHT22;23001;45.952;12.676;2023-05-02T09:10:54;15.80;99.90
37086;DHT22;23001;45.952;12.676;2023-05-02T09:16:26;15.90;99.90
37086;DHT22;23001;45.952;12.676;2023-05-02T09:18:51;16.00;99.90
37086;DHT22;23001;45.952;12.676;2023-05-02T09:24:21;16.20;99.90
37086;DHT22;23001;45.952;12.676;2023-05-02T09:27:03;16.20;99.90
37086;DHT22;23001;45.952;12.676;2023-05-02T09:29:29;16.20;99.90
37086;DHT22;23001;45.952;12.676;2023-05-02T09:32:00;16.20;99.90
37086;DHT22;23001;45.952;12.676;2023-05-02T09:34:26;16.30;99.90
37086;DHT22;23001;45.952;12.676;2023-05-02T09:36:52;16.40;99.90
37086;DHT22;23001;45.952;12.676;2023-05-02T09:39:22;16.40;99.90
37086;DHT22;23001;45.952;12.676;2023-05-02T09:41:48;16.50;99.90
37086;DHT22;23001;45.952;12.676;2023-05-02T09:44:15;16.50;99.90
37086;DHT22;23001;45.952;12.676;2023-05-02T09:46:49;16.30;99.90
37086;DHT22;23001;45.952;12.676;2023-05-02T09:49:15;16.40;99.90
37086;DHT22;23001;45.952;12.676;2023-05-02T09:51:44;16.40;99.90
37086;DHT22;23001;45.952;12.676;2023-05-02T09:54:11;16.40;99.90
37086;DHT22;23001;45.952;12.676;2023-05-02T09:56:50;16.30;99.90
37086;DHT22;23001;45.952;12.676;2023-05-02T09:59:16;16.30;99.90
37086;DHT22;23001;45.952;12.676;2023-05-02T10:01:42;16.30;99.90
37086;DHT22;23001;45.952;12.676;2023-05-02T10:04:11;16.10;99.90
37086;DHT22;23001;45.952;12.676;2023-05-02T10:06:41;16.10;99.90
37086;DHT22;23001;45.952;12.676;2023-05-02T10:09:08;16.00;99.90
37086;DHT22;23001;45.952;12.676;2023-05-02T10:11:34;16.00;99.90
37086;DHT22;23001;45.952;12.676;2023-05-02T10:14:01;16.10;99.90
37086;DHT22;23001;45.952;12.676;2023-05-02T10:16:27;16.10;99.90
37086;DHT22;23001;45.952;12.676;2023-05-02T10:21:25;16.10;99.90
37086;DHT22;23001;45.952;12.676;2023-05-02T10:23:54;16.10;99.90
37086;DHT22;23001;45.952;12.676;2023-05-02T10:26:21;16.00;99.90
37086;DHT22;23001;45.952;12.676;2023-05-02T10:28:56;16.10;99.90
37086;DHT22;23001;45.952;12.676;2023-05-02T10:31:21;16.00;99.90
37086;DHT22;23001;45.952;12.676;2023-05-02T10:33:49;16.00;99.90
37086;DHT22;23001;45.952;12.676;2023-05-02T10:36:16;16.10;99.90
37086;DHT22;23001;45.952;12.676;2023-05-02T10:38:44;16.20;99.90
37086;DHT22;23001;45.952;12.676;2023-05-02T10:41:21;16.20;99.90
37086;DHT22;23001;45.952;12.676;2023-05-02T10:43:48;16.20;99.90
37086;DHT22;23001;45.952;12.676;2023-05-02T10:46:29;16.20;99.90
37086;DHT22;23001;45.952;12.676;2023-05-02T10:51:28;16.30;99.90
37086;DHT22;23001;45.952;12.676;2023-05-02T10:53:54;16.30;99.90
37086;DHT22;23001;45.952;12.676;2023-05-02T10:56:21;16.30;99.90
37086;DHT22;23001;45.952;12.676;2023-05-02T10:58:48;16.30;99.90
37086;DHT22;23001;45.952;12.676;2023-05-02T11:03:52;16.30;99.90
37086;DHT22;23001;45.952;12.676;2023-05-02T11:06:18;16.30;99.90
37086;DHT22;23001;45.952;12.676;2023-05-02T11:08:44;16.30;99.90
37086;DHT22;23001;45.952;12.676;2023-05-02T11:13:57;16.30;99.90
37086;DHT22;23001;45.952;12.676;2023-05-02T11:19:20;16.20;99.90
37086;DHT22;23001;45.952;12.676;2023-05-02T11:21:46;16.20;99.90
37086;DHT22;23001;45.952;12.676;2023-05-02T11:27:35;16.20;99.90
37086;DHT22;23001;45.952;12.676;2023-05-02T11:32:23;16.20;99.90
37086;DHT22;23001;45.952;12.676;2023-05-02T11:34:49;16.20;99.90
37086;DHT22;23001;45.952;12.676;2023-05-02T11:37:17;16.30;99.90
37086;DHT22;23001;45.952;12.676;2023-05-02T11:39:52;16.20;99.90
37086;DHT22;23001;45.952;12.676;2023-05-02T11:42:34;16.20;99.90
37086;DHT22;23001;45.952;12.676;2023-05-02T11:45:00;16.10;99.90
37086;DHT22;23001;45.952;12.676;2023-05-02T11:47:26;16.10;99.90
37086;DHT22;23001;45.952;12.676;2023-05-02T11:52:51;16.10;99.90
37086;DHT22;23001;45.952;12.676;2023-05-02T11:55:23;16.10;99.90
37086;DHT22;23001;45.952;12.676;2023-05-02T11:57:49;16.00;99.90
37086;DHT22;23001;45.952;12.676;2023-05-02T12:00:15;16.00;99.90
37086;DHT22;23001;45.952;12.676;2023-05-02T12:02:42;16.10;99.90
37086;DHT22;23001;45.952;12.676;2023-05-02T12:05:12;15.90;99.90
37086;DHT22;23001;45.952;12.676;2023-05-02T12:07:39;15.90;99.90
37086;DHT22;23001;45.952;12.676;2023-05-02T12:10:06;15.90;99.90
37086;DHT22;23001;45.952;12.676;2023-05-02T12:12:32;15.80;99.90
37086;DHT22;23001;45.952;12.676;2023-05-02T12:15:02;15.80;99.90
37086;DHT22;23001;45.952;12.676;2023-05-02T12:17:28;15.70;99.90
37086;DHT22;23001;45.952;12.676;2023-05-02T12:19:53;15.70;99.90
37086;DHT22;23001;45.952;12.676;2023-05-02T12:22:22;15.70;99.90
37086;DHT22;23001;45.952;12.676;2023-05-02T12:24:47;15.70;99.90
37086;DHT22;23001;45.952;12.676;2023-05-02T12:27:14;15.80;99.90
37086;DHT22;23001;45.952;12.676;2023-05-02T12:29:40;15.70;99.90
37086;DHT22;23001;45.952;12.676;2023-05-02T12:32:06;15.70;99.90
37086;DHT22;23001;45.952;12.676;2023-05-02T12:34:33;15.80;99.90
37086;DHT22;23001;45.952;12.676;2023-05-02T12:36:58;15.80;99.90
37086;DHT22;23001;45.952;12.676;2023-05-02T12:39:40;15.80;99.90
37086;DHT22;23001;45.952;12.676;2023-05-02T12:42:12;15.80;99.90
37086;DHT22;23001;45.952;12.676;2023-05-02T12:44:38;15.90;99.90
37086;DHT22;23001;45.952;12.676;2023-05-02T12:47:05;15.80;99.90
37086;DHT22;23001;45.952;12.676;2023-05-02T12:49:31;15.90;99.90
37086;DHT22;23001;45.952;12.676;2023-05-02T12:51:57;15.90;99.90
37086;DHT22;23001;45.952;12.676;2023-05-02T12:54:22;15.90;99.90
37086;DHT22;23001;45.952;12.676;2023-05-02T12:56:51;15.90;99.90
37086;DHT22;23001;45.952;12.676;2023-05-02T12:59:29;15.90;99.90
37086;DHT22;23001;45.952;12.676;2023-05-02T13:01:55;15.90;99.90
37086;DHT22;23001;45.952;12.676;2023-05-02T13:04:32;16.00;99.90
37086;DHT22;23001;45.952;12.676;2023-05-02T13:06:57;15.90;99.90
37086;DHT22;23001;45.952;12.676;2023-05-02T13:09:23;16.10;99.90
37086;DHT22;23001;45.952;12.676;2023-05-02T13:11:48;16.10;99.90
37086;DHT22;23001;45.952;12.676;2023-05-02T13:14:17;16.10;99.90
37086;DHT22;23001;45.952;12.676;2023-05-02T13:16:42;16.10;99.90
37086;DHT22;23001;45.952;12.676;2023-05-02T13:19:08;16.10;99.90
37086;DHT22;23001;45.952;12.676;2023-05-02T13:21:33;16.20;99.90
37086;DHT22;23001;45.952;12.676;2023-05-02T13:23:59;16.10;99.90
37086;DHT22;23001;45.952;12.676;2023-05-02T13:26:25;16.20;99.90
37086;DHT22;23001;45.952;12.676;2023-05-02T13:28:51;16.30;99.90
37086;DHT22;23001;45.952;12.676;2023-05-02T13:31:17;16.30;99.90
37086;DHT22;23001;45.952;12.676;2023-05-02T13:33:42;16.40;99.90
37086;DHT22;23001;45.952;12.676;2023-05-02T13:36:08;16.40;99.90
37086;DHT22;23001;45.952;12.676;2023-05-02T13:38:33;16.50;99.90
37086;DHT22;23001;45.952;12.676;2023-05-02T13:40:59;16.60;99.90
37086;DHT22;23001;45.952;12.676;2023-05-02T13:43:25;16.60;99.90
37086;DHT22;23001;45.952;12.676;2023-05-02T13:45:51;16.50;99.90
37086;DHT22;23001;45.952;12.676;2023-05-02T13:48:16;16.50;99.90
37086;DHT22;23001;45.952;12.676;2023-05-02T13:50:42;16.60;99.90
37086;DHT22;23001;45.952;12.676;2023-05-02T13:53:13;16.60;99.90
37086;DHT22;23001;45.952;12.676;2023-05-02T13:56:00;16.70;99.90
37086;DHT22;23001;45.952;12.676;2023-05-02T13:58:25;16.60;99.90
37086;DHT22;23001;45.952;12.676;2023-05-02T14:00:50;16.60;99.90
37086;DHT22;23001;45.952;12.676;2023-05-02T14:03:16;16.70;99.90
37086;DHT22;23001;45.952;12.676;2023-05-02T14:05:42;16.60;99.90
37086;DHT22;23001;45.952;12.676;2023-05-02T14:08:08;16.60;99.90
37086;DHT22;23001;45.952;12.676;2023-05-02T14:10:34;16.60;99.90
37086;DHT22;23001;45.952;12.676;2023-05-02T14:13:05;16.60;99.90
37086;DHT22;23001;45.952;12.676;2023-05-02T14:15:30;16.60;99.90
37086;DHT22;23001;45.952;12.676;2023-05-02T14:17:56;16.60;99.90
37086;DHT22;23001;45.952;12.676;2023-05-02T14:20:21;16.60;99.90
37086;DHT22;23001;45.952;12.676;2023-05-02T14:22:48;16.60;99.90
37086;DHT22;23001;45.952;12.676;2023-05-02T14:25:16;16.50;99.90
37086;DHT22;23001;45.952;12.676;2023-05-02T14:27:44;16.60;99.90
37086;DHT22;23001;45.952;12.676;2023-05-02T14:30:10;16.50;99.90
37086;DHT22;23001;45.952;12.676;2023-05-02T14:32:44;16.50;99.90
37086;DHT22;23001;45.952;12.676;2023-05-02T14:35:13;16.60;99.90
37086;DHT22;23001;45.952;12.676;2023-05-02T14:37:39;16.50;99.90
37086;DHT22;23001;45.952;12.676;2023-05-02T14:40:06;16.50;99.90
37086;DHT22;23001;45.952;12.676;2023-05-02T14:42:32;16.50;99.90
37086;DHT22;23001;45.952;12.676;2023-05-02T14:44:57;16.50;99.90
37086;DHT22;23001;45.952;12.676;2023-05-02T14:47:29;16.60;99.90
37086;DHT22;23001;45.952;12.676;2023-05-02T14:49:58;16.60;99.90
37086;DHT22;23001;45.952;12.676;2023-05-02T14:55:27;16.60;99.90
37086;DHT22;23001;45.952;12.676;2023-05-02T14:57:52;16.60;99.90
37086;DHT22;23001;45.952;12.676;2023-05-02T15:00:18;16.60;99.90
37086;DHT22;23001;45.952;12.676;2023-05-02T15:02:44;16.60;99.90
37086;DHT22;23001;45.952;12.676;2023-05-02T15:05:13;16.60;99.90
37086;DHT22;23001;45.952;12.676;2023-05-02T15:07:41;16.60;99.90
37086;DHT22;23001;45.952;12.676;2023-05-02T15:10:07;16.60;99.90
37086;DHT22;23001;45.952;12.676;2023-05-02T15:12:33;16.60;99.90
37086;DHT22;23001;45.952;12.676;2023-05-02T15:15:09;16.60;99.90
37086;DHT22;23001;45.952;12.676;2023-05-02T15:17:35;16.60;99.90
37086;DHT22;23001;45.952;12.676;2023-05-02T15:20:10;16.60;99.90
37086;DHT22;23001;45.952;12.676;2023-05-02T15:22:38;16.60;99.90
37086;DHT22;23001;45.952;12.676;2023-05-02T15:25:04;16.50;99.90
37086;DHT22;23001;45.952;12.676;2023-05-02T15:27:29;16.50;99.90
37086;DHT22;23001;45.952;12.676;2023-05-02T15:29:55;16.50;99.90
37086;DHT22;23001;45.952;12.676;2023-05-02T15:32:21;16.50;99.90
37086;DHT22;23001;45.952;12.676;2023-05-02T15:34:47;16.50;99.90
37086;DHT22;23001;45.952;12.676;2023-05-02T15:37:12;16.50;99.90
37086;DHT22;23001;45.952;12.676;2023-05-02T15:39:38;16.50;99.90
37086;DHT22;23001;45.952;12.676;2023-05-02T15:42:04;16.40;99.90
37086;DHT22;23001;45.952;12.676;2023-05-02T15:44:34;16.50;99.90
37086;DHT22;23001;45.952;12.676;2023-05-02T15:47:00;16.40;99.90
37086;DHT22;23001;45.952;12.676;2023-05-02T15:49:26;16.40;99.90
37086;DHT22;23001;45.952;12.676;2023-05-02T15:51:56;16.30;99.90
37086;DHT22;23001;45.952;12.676;2023-05-02T15:54:22;16.30;99.90
37086;DHT22;23001;45.952;12.676;2023-05-02T15:56:47;16.20;99.90
37086;DHT22;23001;45.952;12.676;2023-05-02T15:59:13;16.20;99.90
37086;DHT22;23001;45.952;12.676;2023-05-02T16:01:39;16.10;99.90
37086;DHT22;23001;45.952;12.676;2023-05-02T16:04:04;16.20;99.90
37086;DHT22;23001;45.952;12.676;2023-05-02T16:06:31;16.10;99.90
37086;DHT22;23001;45.952;12.676;2023-05-02T16:08:58;16.10;99.90
37086;DHT22;23001;45.952;12.676;2023-05-02T16:11:23;16.10;99.90
37086;DHT22;23001;45.952;12.676;2023-05-02T16:13:49;16.10;99.90
37086;DHT22;23001;45.952;12.676;2023-05-02T16:16:15;16.10;99.90
37086;DHT22;23001;45.952;12.676;2023-05-02T16:18:43;16.10;99.90
37086;DHT22;23001;45.952;12.676;2023-05-02T16:21:11;15.90;99.90
37086;DHT22;23001;45.952;12.676;2023-05-02T16:23:37;15.90;99.90
37086;DHT22;23001;45.952;12.676;2023-05-02T16:26:03;15.90;99.90
37086;DHT22;23001;45.952;12.676;2023-05-02T16:28:28;15.90;99.90
37086;DHT22;23001;45.952;12.676;2023-05-02T16:30:54;15.90;99.90
37086;DHT22;23001;45.952;12.676;2023-05-02T16:33:20;15.90;99.90
37086;DHT22;23001;45.952;12.676;2023-05-02T16:35:46;15.80;99.90
37086;DHT22;23001;45.952;12.676;2023-05-02T16:38:12;15.80;99.90
37086;DHT22;23001;45.952;12.676;2023-05-02T16:40:38;15.80;99.90
37086;DHT22;23001;45.952;12.676;2023-05-02T16:43:04;15.70;99.90
37086;DHT22;23001;45.952;12.676;2023-05-02T16:45:29;15.70;99.90
37086;DHT22;23001;45.952;12.676;2023-05-02T16:47:55;15.60;99.90
37086;DHT22;23001;45.952;12.676;2023-05-02T16:50:21;15.60;99.90
37086;DHT22;23001;45.952;12.676;2023-05-02T16:52:46;15.50;99.90
37086;DHT22;23001;45.952;12.676;2023-05-02T16:55:15;15.50;99.90
37086;DHT22;23001;45.952;12.676;2023-05-02T16:57:41;15.50;99.90
37086;DHT22;23001;45.952;12.676;2023-05-02T17:00:07;15.50;99.90
37086;DHT22;23001;45.952;12.676;2023-05-02T17:02:35;15.50;99.90
37086;DHT22;23001;45.952;12.676;2023-05-02T17:05:00;15.50;99.90
37086;DHT22;23001;45.952;12.676;2023-05-02T17:07:26;15.50;99.90
37086;DHT22;23001;45.952;12.676;2023-05-02T17:09:52;15.50;99.90
37086;DHT22;23001;45.952;12.676;2023-05-02T17:12:17;15.50;99.90
37086;DHT22;23001;45.952;12.676;2023-05-02T17:14:50;15.50;99.90
37086;DHT22;23001;45.952;12.676;2023-05-02T17:17:39;15.50;99.90
37086;DHT22;23001;45.952;12.676;2023-05-02T17:20:20;15.50;99.90
37086;DHT22;23001;45.952;12.676;2023-05-02T17:22:45;15.40;99.90
37086;DHT22;23001;45.952;12.676;2023-05-02T17:25:14;15.40;99.90
37086;DHT22;23001;45.952;12.676;2023-05-02T17:27:40;15.40;99.90
37086;DHT22;23001;45.952;12.676;2023-05-02T17:30:06;15.40;99.90
37086;DHT22;23001;45.952;12.676;2023-05-02T17:32:34;15.40;99.90
37086;DHT22;23001;45.952;12.676;2023-05-02T17:35:03;15.40;99.90
37086;DHT22;23001;45.952;12.676;2023-05-02T17:37:31;15.30;99.90
37086;DHT22;23001;45.952;12.676;2023-05-02T17:40:00;15.20;99.90
37086;DHT22;23001;45.952;12.676;2023-05-02T17:42:36;15.20;99.90
37086;DHT22;23001;45.952;12.676;2023-05-02T17:55:11;15.00;99.90
37086;DHT22;23001;45.952;12.676;2023-05-02T17:57:58;15.00;99.90
37086;DHT22;23001;45.952;12.676;2023-05-02T18:00:39;15.00;99.90
37086;DHT22;23001;45.952;12.676;2023-05-02T18:25:18;15.00;99.90
37086;DHT22;23001;45.952;12.676;2023-05-02T18:27:47;15.10;99.90
37086;DHT22;23001;45.952;12.676;2023-05-02T18:43:33;14.80;99.90
37086;DHT22;23001;45.952;12.676;2023-05-02T18:46:02;14.90;99.90
37086;DHT22;23001;45.952;12.676;2023-05-02T18:51:21;14.90;99.90
37086;DHT22;23001;45.952;12.676;2023-05-02T18:53:48;14.80;99.90
37086;DHT22;23001;45.952;12.676;2023-05-02T18:56:17;14.80;99.90
37086;DHT22;23001;45.952;12.676;2023-05-02T18:58:42;14.80;99.90
37086;DHT22;23001;45.952;12.676;2023-05-02T19:01:11;14.70;99.90
37086;DHT22;23001;45.952;12.676;2023-05-02T19:03:38;14.70;99.90
37086;DHT22;23001;45.952;12.676;2023-05-02T19:09:11;14.70;99.90
37086;DHT22;23001;45.952;12.676;2023-05-02T19:11:47;14.70;99.90
37086;DHT22;23001;45.952;12.676;2023-05-02T19:14:15;14.70;99.90
37086;DHT22;23001;45.952;12.676;2023-05-02T19:16:41;14.80;99.90
37086;DHT22;23001;45.952;12.676;2023-05-02T19:19:06;14.80;99.90
37086;DHT22;23001;45.952;12.676;2023-05-02T19:21:32;14.80;99.90
37086;DHT22;23001;45.952;12.676;2023-05-02T19:24:01;14.70;99.90
37086;DHT22;23001;45.952;12.676;2023-05-02T19:26:27;14.70;99.90
37086;DHT22;23001;45.952;12.676;2023-05-02T19:28:52;14.60;99.90
37086;DHT22;23001;45.952;12.676;2023-05-02T19:34:10;14.70;99.90
37086;DHT22;23001;45.952;12.676;2023-05-02T19:36:45;14.60;99.90
37086;DHT22;23001;45.952;12.676;2023-05-02T19:39:20;14.60;99.90
37086;DHT22;23001;45.952;12.676;2023-05-02T19:41:46;14.60;99.90
37086;DHT22;23001;45.952;12.676;2023-05-02T19:44:14;14.60;99.90
37086;DHT22;23001;45.952;12.676;2023-05-02T19:46:40;14.60;99.90
37086;DHT22;23001;45.952;12.676;2023-05-02T19:49:06;14.50;99.90
37086;DHT22;23001;45.952;12.676;2023-05-02T19:51:31;14.50;99.90
37086;DHT22;23001;45.952;12.676;2023-05-02T19:53:59;14.50;99.90
37086;DHT22;23001;45.952;12.676;2023-05-02T19:56:25;14.50;99.90
37086;DHT22;23001;45.952;12.676;2023-05-02T19:58:59;14.50;99.90
37086;DHT22;23001;45.952;12.676;2023-05-02T20:01:25;14.50;99.90